sensor_id;sensor_type;location;lat;lon;timestamp;pressure;altitude;pressure_sealevel;temperature
64960;BMP180;51487;52.266;10.542;2023-02-24T00:01:33;100268.00;;;4.20
64960;BMP180;51487;52.266;10.542;2023-02-24T00:04:05;100263.00;;;4.20
64960;BMP180;51487;52.266;10.542;2023-02-24T00:06:38;100273.00;;;4.30
64960;BMP180;51487;52.266;10.542;2023-02-24T00:09:08;100270.00;;;4.10
64960;BMP180;51487;52.266;10.542;2023-02-24T00:11:42;100262.00;;;4.20
64960;BMP180;51487;52.266;10.542;2023-02-24T00:14:14;100268.00;;;4.20
64960;BMP180;51487;52.266;10.542;2023-02-24T00:16:41;100263.00;;;4.20
64960;BMP180;51487;52.266;10.542;2023-02-24T00:19:12;100258.00;;;4.20
64960;BMP180;51487;52.266;10.542;2023-02-24T00:21:42;100254.00;;;4.20
64960;BMP180;51487;52.266;10.542;2023-02-24T00:24:09;100252.00;;;4.10
64960;BMP180;51487;52.266;10.542;2023-02-24T00:26:35;100245.00;;;4.20
64960;BMP180;51487;52.266;10.542;2023-02-24T00:29:04;100245.00;;;4.20
64960;BMP180;51487;52.266;10.542;2023-02-24T00:31:31;100250.00;;;4.30
64960;BMP180;51487;52.266;10.542;2023-02-24T00:33:59;100245.00;;;4.40
64960;BMP180;51487;52.266;10.542;2023-02-24T00:36:29;100236.00;;;4.40
64960;BMP180;51487;52.266;10.542;2023-02-24T00:39:03;100244.00;;;4.30
64960;BMP180;51487;52.266;10.542;2023-02-24T00:41:41;100245.00;;;4.30
64960;BMP180;51487;52.266;10.542;2023-02-24T00:44:11;100242.00;;;4.30
64960;BMP180;51487;52.266;10.542;2023-02-24T00:46:43;100230.00;;;4.20
64960;BMP180;51487;52.266;10.542;2023-02-24T00:49:16;100230.00;;;4.10
64960;BMP180;51487;52.266;10.542;2023-02-24T00:51:45;100232.00;;;4.20
64960;BMP180;51487;52.266;10.542;2023-02-24T00:54:13;100228.00;;;4.10
64960;BMP180;51487;52.266;10.542;2023-02-24T00:56:45;100211.00;;;4.00
64960;BMP180;51487;52.266;10.542;2023-02-24T00:59:14;100211.00;;;4.10
64960;BMP180;51487;52.266;10.542;2023-02-24T01:01:41;100206.00;;;3.90
64960;BMP180;51487;52.266;10.542;2023-02-24T01:04:10;100200.00;;;3.80
64960;BMP180;51487;52.266;10.542;2023-02-24T01:06:41;100200.00;;;3.90
64960;BMP180;51487;52.266;10.542;2023-02-24T01:09:14;100188.00;;;3.70
64960;BMP180;51487;52.266;10.542;2023-02-24T01:11:44;100196.00;;;3.70
64960;BMP180;51487;52.266;10.542;2023-02-24T01:14:48;100195.00;;;3.80
64960;BMP180;51487;52.266;10.542;2023-02-24T01:17:16;100193.00;;;3.70
64960;BMP180;51487;52.266;10.542;2023-02-24T01:19:44;100188.00;;;3.70
64960;BMP180;51487;52.266;10.542;2023-02-24T01:22:13;100189.00;;;3.50
64960;BMP180;51487;52.266;10.542;2023-02-24T01:24:41;100187.00;;;3.50
64960;BMP180;51487;52.266;10.542;2023-02-24T01:27:11;100174.00;;;3.50
64960;BMP180;51487;52.266;10.542;2023-02-24T01:29:38;100175.00;;;3.50
64960;BMP180;51487;52.266;10.542;2023-02-24T01:32:05;100171.00;;;3.40
64960;BMP180;51487;52.266;10.542;2023-02-24T01:34:31;100175.00;;;3.50
64960;BMP180;51487;52.266;10.542;2023-02-24T01:36:59;100171.00;;;3.40
64960;BMP180;51487;52.266;10.542;2023-02-24T01:39:25;100171.00;;;3.40
64960;BMP180;51487;52.266;10.542;2023-02-24T01:41:51;100167.00;;;3.50
64960;BMP180;51487;52.266;10.542;2023-02-24T01:46:44;100167.00;;;3.60
64960;BMP180;51487;52.266;10.542;2023-02-24T01:49:15;100167.00;;;3.70
64960;BMP180;51487;52.266;10.542;2023-02-24T01:51:53;100165.00;;;3.80
64960;BMP180;51487;52.266;10.542;2023-02-24T01:54:24;100157.00;;;3.70
64960;BMP180;51487;52.266;10.542;2023-02-24T01:56:56;100152.00;;;3.70
64960;BMP180;51487;52.266;10.542;2023-02-24T01:59:26;100155.00;;;3.80
64960;BMP180;51487;52.266;10.542;2023-02-24T02:01:57;100158.00;;;3.80
64960;BMP180;51487;52.266;10.542;2023-02-24T02:04:40;100156.00;;;3.80
64960;BMP180;51487;52.266;10.542;2023-02-24T02:07:11;100149.00;;;3.70
64960;BMP180;51487;52.266;10.542;2023-02-24T02:09:40;100141.00;;;3.70
64960;BMP180;51487;52.266;10.542;2023-02-24T02:12:09;100135.00;;;3.80
64960;BMP180;51487;52.266;10.542;2023-02-24T02:14:37;100147.00;;;3.80
64960;BMP180;51487;52.266;10.542;2023-02-24T02:18:08;100135.00;;;3.80
64960;BMP180;51487;52.266;10.542;2023-02-24T02:30:16;100119.00;;;3.90
64960;BMP180;51487;52.266;10.542;2023-02-24T02:35:30;100118.00;;;3.80
64960;BMP180;51487;52.266;10.542;2023-02-24T02:40:59;100095.00;;;3.90
64960;BMP180;51487;52.266;10.542;2023-02-24T02:43:38;100084.00;;;3.90
64960;BMP180;51487;52.266;10.542;2023-02-24T02:49:50;100086.00;;;3.70
64960;BMP180;51487;52.266;10.542;2023-02-24T02:52:35;100092.00;;;3.70
64960;BMP180;51487;52.266;10.542;2023-02-24T02:55:13;100078.00;;;3.60
64960;BMP180;51487;52.266;10.542;2023-02-24T02:57:46;100079.00;;;3.80
64960;BMP180;51487;52.266;10.542;2023-02-24T03:00:27;100082.00;;;3.70
64960;BMP180;51487;52.266;10.542;2023-02-24T03:03:05;100079.00;;;3.80
64960;BMP180;51487;52.266;10.542;2023-02-24T03:05:47;100063.00;;;3.80
64960;BMP180;51487;52.266;10.542;2023-02-24T03:08:20;100066.00;;;3.90
64960;BMP180;51487;52.266;10.542;2023-02-24T03:10:50;100066.00;;;4.00
64960;BMP180;51487;52.266;10.542;2023-02-24T03:13:21;100064.00;;;4.10
64960;BMP180;51487;52.266;10.542;2023-02-24T03:15:56;100058.00;;;4.00
64960;BMP180;51487;52.266;10.542;2023-02-24T03:18:34;100058.00;;;4.00
64960;BMP180;51487;52.266;10.542;2023-02-24T03:21:09;100046.00;;;3.70
64960;BMP180;51487;52.266;10.542;2023-02-24T03:23:46;100051.00;;;3.80
64960;BMP180;51487;52.266;10.542;2023-02-24T03:32:04;100044.00;;;3.90
64960;BMP180;51487;52.266;10.542;2023-02-24T03:35:10;100039.00;;;4.00
64960;BMP180;51487;52.266;10.542;2023-02-24T03:37:41;100033.00;;;3.80
64960;BMP180;51487;52.266;10.542;2023-02-24T03:40:09;100039.00;;;4.00
64960;BMP180;51487;52.266;10.542;2023-02-24T03:42:51;100020.00;;;3.80
64960;BMP180;51487;52.266;10.542;2023-02-24T03:45:21;100023.00;;;3.80
64960;BMP180;51487;52.266;10.542;2023-02-24T03:47:49;100019.00;;;3.70
64960;BMP180;51487;52.266;10.542;2023-02-24T03:50:19;100021.00;;;3.90
64960;BMP180;51487;52.266;10.542;2023-02-24T03:58:25;100008.00;;;3.70
64960;BMP180;51487;52.266;10.542;2023-02-24T04:01:18;100008.00;;;3.60
64960;BMP180;51487;52.266;10.542;2023-02-24T04:07:39;99994.00;;;3.80
64960;BMP180;51487;52.266;10.542;2023-02-24T04:16:27;99983.00;;;3.70
64960;BMP180;51487;52.266;10.542;2023-02-24T04:19:03;99979.00;;;3.60
64960;BMP180;51487;52.266;10.542;2023-02-24T04:21:36;99984.00;;;3.60
64960;BMP180;51487;52.266;10.542;2023-02-24T04:24:04;99980.00;;;3.60
64960;BMP180;51487;52.266;10.542;2023-02-24T04:26:36;99969.00;;;3.70
64960;BMP180;51487;52.266;10.542;2023-02-24T04:29:05;99969.00;;;3.70
64960;BMP180;51487;52.266;10.542;2023-02-24T04:31:33;99963.00;;;3.80
64960;BMP180;51487;52.266;10.542;2023-02-24T04:33:59;99969.00;;;3.80
64960;BMP180;51487;52.266;10.542;2023-02-24T04:36:26;99968.00;;;3.80
64960;BMP180;51487;52.266;10.542;2023-02-24T04:38:51;99968.00;;;3.80
64960;BMP180;51487;52.266;10.542;2023-02-24T04:41:18;99958.00;;;3.80
64960;BMP180;51487;52.266;10.542;2023-02-24T04:43:50;99952.00;;;3.70
64960;BMP180;51487;52.266;10.542;2023-02-24T04:46:17;99959.00;;;3.80
64960;BMP180;51487;52.266;10.542;2023-02-24T04:48:47;99949.00;;;3.70
64960;BMP180;51487;52.266;10.542;2023-02-24T04:51:14;99957.00;;;3.70
64960;BMP180;51487;52.266;10.542;2023-02-24T04:53:40;99948.00;;;3.40
64960;BMP180;51487;52.266;10.542;2023-02-24T04:56:07;99942.00;;;3.30
64960;BMP180;51487;52.266;10.542;2023-02-24T04:58:34;99934.00;;;3.30
64960;BMP180;51487;52.266;10.542;2023-02-24T05:01:09;99935.00;;;3.20
64960;BMP180;51487;52.266;10.542;2023-02-24T05:03:36;99935.00;;;3.20
64960;BMP180;51487;52.266;10.542;2023-02-24T05:06:03;99927.00;;;3.30
64960;BMP180;51487;52.266;10.542;2023-02-24T05:08:31;99931.00;;;3.20
64960;BMP180;51487;52.266;10.542;2023-02-24T05:10:57;99925.00;;;3.30
64960;BMP180;51487;52.266;10.542;2023-02-24T05:13:27;99916.00;;;3.20
64960;BMP180;51487;52.266;10.542;2023-02-24T05:16:05;99917.00;;;3.20
64960;BMP180;51487;52.266;10.542;2023-02-24T05:18:32;99901.00;;;3.30
64960;BMP180;51487;52.266;10.542;2023-02-24T05:21:09;99899.00;;;3.10
64960;BMP180;51487;52.266;10.542;2023-02-24T05:23:55;99898.00;;;3.20
64960;BMP180;51487;52.266;10.542;2023-02-24T05:26:23;99897.00;;;3.20
64960;BMP180;51487;52.266;10.542;2023-02-24T05:28:53;99898.00;;;3.30
64960;BMP180;51487;52.266;10.542;2023-02-24T05:31:25;99891.00;;;3.30
64960;BMP180;51487;52.266;10.542;2023-02-24T05:33:58;99889.00;;;3.40
64960;BMP180;51487;52.266;10.542;2023-02-24T05:36:32;99892.00;;;3.40
64960;BMP180;51487;52.266;10.542;2023-02-24T05:39:03;99894.00;;;3.50
64960;BMP180;51487;52.266;10.542;2023-02-24T05:41:32;99879.00;;;3.40
64960;BMP180;51487;52.266;10.542;2023-02-24T05:44:07;99876.00;;;3.30
64960;BMP180;51487;52.266;10.542;2023-02-24T05:46:38;99867.00;;;3.40
64960;BMP180;51487;52.266;10.542;2023-02-24T05:49:15;99867.00;;;3.20
64960;BMP180;51487;52.266;10.542;2023-02-24T05:51:49;99861.00;;;3.30
64960;BMP180;51487;52.266;10.542;2023-02-24T05:54:20;99856.00;;;3.30
64960;BMP180;51487;52.266;10.542;2023-02-24T05:56:47;99859.00;;;3.30
64960;BMP180;51487;52.266;10.542;2023-02-24T05:59:13;99860.00;;;3.30
64960;BMP180;51487;52.266;10.542;2023-02-24T06:01:46;99863.00;;;3.30
64960;BMP180;51487;52.266;10.542;2023-02-24T06:04:14;99857.00;;;3.30
64960;BMP180;51487;52.266;10.542;2023-02-24T06:07:45;99847.00;;;3.30
64960;BMP180;51487;52.266;10.542;2023-02-24T06:09:54;99843.00;;;3.20
64960;BMP180;51487;52.266;10.542;2023-02-24T06:12:29;99828.00;;;3.30
64960;BMP180;51487;52.266;10.542;2023-02-24T06:14:58;99826.00;;;3.20
64960;BMP180;51487;52.266;10.542;2023-02-24T06:17:24;99830.00;;;3.10
64960;BMP180;51487;52.266;10.542;2023-02-24T06:19:51;99826.00;;;3.20
64960;BMP180;51487;52.266;10.542;2023-02-24T06:22:20;99831.00;;;3.20
64960;BMP180;51487;52.266;10.542;2023-02-24T06:24:47;99812.00;;;3.20
64960;BMP180;51487;52.266;10.542;2023-02-24T06:27:18;99808.00;;;3.10
64960;BMP180;51487;52.266;10.542;2023-02-24T06:29:47;99809.00;;;3.20
64960;BMP180;51487;52.266;10.542;2023-02-24T06:32:15;99803.00;;;3.30
64960;BMP180;51487;52.266;10.542;2023-02-24T06:34:41;99788.00;;;3.20
64960;BMP180;51487;52.266;10.542;2023-02-24T06:37:10;99791.00;;;3.30
64960;BMP180;51487;52.266;10.542;2023-02-24T06:39:37;99795.00;;;3.10
64960;BMP180;51487;52.266;10.542;2023-02-24T06:42:04;99783.00;;;3.20
64960;BMP180;51487;52.266;10.542;2023-02-24T06:44:34;99784.00;;;3.20
64960;BMP180;51487;52.266;10.542;2023-02-24T06:47:06;99783.00;;;3.30
64960;BMP180;51487;52.266;10.542;2023-02-24T06:49:37;99781.00;;;3.30
64960;BMP180;51487;52.266;10.542;2023-02-24T06:52:03;99776.00;;;3.30
64960;BMP180;51487;52.266;10.542;2023-02-24T06:54:29;99772.00;;;3.40
64960;BMP180;51487;52.266;10.542;2023-02-24T06:56:58;99761.00;;;3.40
64960;BMP180;51487;52.266;10.542;2023-02-24T06:59:24;99759.00;;;3.40
64960;BMP180;51487;52.266;10.542;2023-02-24T07:01:58;99762.00;;;3.40
64960;BMP180;51487;52.266;10.542;2023-02-24T07:04:26;99761.00;;;3.50
64960;BMP180;51487;52.266;10.542;2023-02-24T07:06:57;99756.00;;;3.50
64960;BMP180;51487;52.266;10.542;2023-02-24T07:09:27;99743.00;;;3.50
64960;BMP180;51487;52.266;10.542;2023-02-24T07:11:53;99747.00;;;3.40
64960;BMP180;51487;52.266;10.542;2023-02-24T07:14:23;99748.00;;;3.60
64960;BMP180;51487;52.266;10.542;2023-02-24T07:16:50;99738.00;;;3.50
64960;BMP180;51487;52.266;10.542;2023-02-24T07:19:22;99739.00;;;3.50
64960;BMP180;51487;52.266;10.542;2023-02-24T07:21:50;99735.00;;;3.50
64960;BMP180;51487;52.266;10.542;2023-02-24T07:24:23;99730.00;;;3.60
64960;BMP180;51487;52.266;10.542;2023-02-24T07:26:58;99726.00;;;3.50
64960;BMP180;51487;52.266;10.542;2023-02-24T07:29:27;99728.00;;;3.60
64960;BMP180;51487;52.266;10.542;2023-02-24T07:31:54;99722.00;;;3.60
64960;BMP180;51487;52.266;10.542;2023-02-24T07:34:24;99715.00;;;3.60
64960;BMP180;51487;52.266;10.542;2023-02-24T07:36:51;99719.00;;;3.50
64960;BMP180;51487;52.266;10.542;2023-02-24T07:39:17;99704.00;;;3.60
64960;BMP180;51487;52.266;10.542;2023-02-24T07:41:44;99709.00;;;3.70
64960;BMP180;51487;52.266;10.542;2023-02-24T07:44:16;99704.00;;;3.60
64960;BMP180;51487;52.266;10.542;2023-02-24T07:46:44;99697.00;;;3.70
64960;BMP180;51487;52.266;10.542;2023-02-24T07:49:12;99702.00;;;3.70
64960;BMP180;51487;52.266;10.542;2023-02-24T07:51:40;99697.00;;;3.80
64960;BMP180;51487;52.266;10.542;2023-02-24T07:54:07;99689.00;;;3.70
64960;BMP180;51487;52.266;10.542;2023-02-24T07:56:35;99690.00;;;3.80
64960;BMP180;51487;52.266;10.542;2023-02-24T07:59:11;99681.00;;;3.80
64960;BMP180;51487;52.266;10.542;2023-02-24T08:01:42;99686.00;;;3.80
64960;BMP180;51487;52.266;10.542;2023-02-24T08:04:20;99672.00;;;3.60
64960;BMP180;51487;52.266;10.542;2023-02-24T08:06:48;99669.00;;;3.60
64960;BMP180;51487;52.266;10.542;2023-02-24T08:09:25;99658.00;;;3.60
64960;BMP180;51487;52.266;10.542;2023-02-24T08:12:15;99652.00;;;3.70
64960;BMP180;51487;52.266;10.542;2023-02-24T08:14:43;99659.00;;;3.70
64960;BMP180;51487;52.266;10.542;2023-02-24T08:17:15;99652.00;;;3.70
64960;BMP180;51487;52.266;10.542;2023-02-24T08:19:45;99644.00;;;3.60
64960;BMP180;51487;52.266;10.542;2023-02-24T08:22:13;99636.00;;;3.60
64960;BMP180;51487;52.266;10.542;2023-02-24T08:24:56;99631.00;;;3.60
64960;BMP180;51487;52.266;10.542;2023-02-24T08:27:26;99625.00;;;3.70
64960;BMP180;51487;52.266;10.542;2023-02-24T08:29:57;99631.00;;;3.70
64960;BMP180;51487;52.266;10.542;2023-02-24T08:32:35;99623.00;;;3.60
64960;BMP180;51487;52.266;10.542;2023-02-24T08:35:27;99623.00;;;3.60
64960;BMP180;51487;52.266;10.542;2023-02-24T08:38:05;99614.00;;;3.60
64960;BMP180;51487;52.266;10.542;2023-02-24T08:40:37;99613.00;;;3.60
64960;BMP180;51487;52.266;10.542;2023-02-24T08:43:16;99606.00;;;3.60
64960;BMP180;51487;52.266;10.542;2023-02-24T08:45:55;99607.00;;;3.50
64960;BMP180;51487;52.266;10.542;2023-02-24T08:48:36;99601.00;;;3.70
64960;BMP180;51487;52.266;10.542;2023-02-24T08:51:23;99597.00;;;3.80
64960;BMP180;51487;52.266;10.542;2023-02-24T08:53:56;99591.00;;;3.90
64960;BMP180;51487;52.266;10.542;2023-02-24T08:56:26;99591.00;;;3.80
64960;BMP180;51487;52.266;10.542;2023-02-24T08:58:56;99602.00;;;3.80
64960;BMP180;51487;52.266;10.542;2023-02-24T09:01:34;99580.00;;;3.80
64960;BMP180;51487;52.266;10.542;2023-02-24T09:04:08;99584.00;;;3.80
64960;BMP180;51487;52.266;10.542;2023-02-24T09:06:49;99566.00;;;3.70
64960;BMP180;51487;52.266;10.542;2023-02-24T09:09:22;99566.00;;;3.60
64960;BMP180;51487;52.266;10.542;2023-02-24T09:11:52;99556.00;;;3.60
64960;BMP180;51487;52.266;10.542;2023-02-24T09:14:27;99560.00;;;3.70
64960;BMP180;51487;52.266;10.542;2023-02-24T09:17:01;99557.00;;;3.60
64960;BMP180;51487;52.266;10.542;2023-02-24T09:19:41;99568.00;;;3.70
64960;BMP180;51487;52.266;10.542;2023-02-24T09:22:24;99569.00;;;3.60
64960;BMP180;51487;52.266;10.542;2023-02-24T09:24:59;99552.00;;;3.60
64960;BMP180;51487;52.266;10.542;2023-02-24T09:33:26;99550.00;;;3.30
64960;BMP180;51487;52.266;10.542;2023-02-24T09:36:05;99540.00;;;3.50
64960;BMP180;51487;52.266;10.542;2023-02-24T09:38:39;99524.00;;;3.50
64960;BMP180;51487;52.266;10.542;2023-02-24T09:41:43;99549.00;;;3.30
64960;BMP180;51487;52.266;10.542;2023-02-24T09:44:38;99531.00;;;3.10
64960;BMP180;51487;52.266;10.542;2023-02-24T09:49:48;99522.00;;;3.00
64960;BMP180;51487;52.266;10.542;2023-02-24T09:52:22;99527.00;;;3.00
64960;BMP180;51487;52.266;10.542;2023-02-24T09:55:51;99528.00;;;2.90
64960;BMP180;51487;52.266;10.542;2023-02-24T10:04:14;99507.00;;;2.80
64960;BMP180;51487;52.266;10.542;2023-02-24T10:09:42;99499.00;;;2.70
64960;BMP180;51487;52.266;10.542;2023-02-24T10:12:20;99497.00;;;2.80
64960;BMP180;51487;52.266;10.542;2023-02-24T10:15:02;99490.00;;;2.80
64960;BMP180;51487;52.266;10.542;2023-02-24T10:18:03;99495.00;;;2.80
64960;BMP180;51487;52.266;10.542;2023-02-24T10:20:52;99494.00;;;2.80
64960;BMP180;51487;52.266;10.542;2023-02-24T10:23:44;99485.00;;;2.70
64960;BMP180;51487;52.266;10.542;2023-02-24T10:34:51;99453.00;;;3.10
64960;BMP180;51487;52.266;10.542;2023-02-24T10:37:20;99453.00;;;3.00
64960;BMP180;51487;52.266;10.542;2023-02-24T10:39:48;99454.00;;;2.90
64960;BMP180;51487;52.266;10.542;2023-02-24T10:42:26;99445.00;;;2.70
64960;BMP180;51487;52.266;10.542;2023-02-24T10:45:12;99442.00;;;2.70
64960;BMP180;51487;52.266;10.542;2023-02-24T10:47:44;99434.00;;;2.90
64960;BMP180;51487;52.266;10.542;2023-02-24T10:50:23;99437.00;;;2.90
64960;BMP180;51487;52.266;10.542;2023-02-24T10:52:51;99436.00;;;2.80
64960;BMP180;51487;52.266;10.542;2023-02-24T10:58:34;99419.00;;;3.00
64960;BMP180;51487;52.266;10.542;2023-02-24T11:01:15;99407.00;;;3.00
64960;BMP180;51487;52.266;10.542;2023-02-24T11:03:53;99408.00;;;2.90
64960;BMP180;51487;52.266;10.542;2023-02-24T11:06:36;99402.00;;;2.90
64960;BMP180;51487;52.266;10.542;2023-02-24T11:09:14;99398.00;;;2.90
64960;BMP180;51487;52.266;10.542;2023-02-24T11:11:45;99392.00;;;3.00
64960;BMP180;51487;52.266;10.542;2023-02-24T11:14:38;99393.00;;;2.80
64960;BMP180;51487;52.266;10.542;2023-02-24T11:17:45;99384.00;;;3.00
64960;BMP180;51487;52.266;10.542;2023-02-24T11:22:57;99370.00;;;2.90
64960;BMP180;51487;52.266;10.542;2023-02-24T11:25:34;99359.00;;;3.20
64960;BMP180;51487;52.266;10.542;2023-02-24T11:28:01;99351.00;;;3.20
64960;BMP180;51487;52.266;10.542;2023-02-24T11:30:53;99343.00;;;3.40
64960;BMP180;51487;52.266;10.542;2023-02-24T11:36:49;99334.00;;;3.30
64960;BMP180;51487;52.266;10.542;2023-02-24T11:39:49;99325.00;;;3.10
64960;BMP180;51487;52.266;10.542;2023-02-24T11:42:35;99311.00;;;3.20
64960;BMP180;51487;52.266;10.542;2023-02-24T11:45:20;99309.00;;;3.20
64960;BMP180;51487;52.266;10.542;2023-02-24T11:47:58;99297.00;;;3.10
64960;BMP180;51487;52.266;10.542;2023-02-24T11:50:57;99289.00;;;3.00
64960;BMP180;51487;52.266;10.542;2023-02-24T11:53:36;99289.00;;;3.00
64960;BMP180;51487;52.266;10.542;2023-02-24T11:59:07;99261.00;;;2.90
64960;BMP180;51487;52.266;10.542;2023-02-24T12:01:54;99258.00;;;2.80
64960;BMP180;51487;52.266;10.542;2023-02-24T12:04:32;99253.00;;;2.80
64960;BMP180;51487;52.266;10.542;2023-02-24T12:09:45;99243.00;;;2.90
64960;BMP180;51487;52.266;10.542;2023-02-24T12:12:23;99238.00;;;2.70
64960;BMP180;51487;52.266;10.542;2023-02-24T12:15:03;99235.00;;;2.50
64960;BMP180;51487;52.266;10.542;2023-02-24T12:17:45;99236.00;;;2.60
64960;BMP180;51487;52.266;10.542;2023-02-24T12:20:27;99216.00;;;2.70
64960;BMP180;51487;52.266;10.542;2023-02-24T12:23:05;99221.00;;;3.00
64960;BMP180;51487;52.266;10.542;2023-02-24T12:31:55;99211.00;;;3.00
64960;BMP180;51487;52.266;10.542;2023-02-24T12:37:31;99209.00;;;3.00
64960;BMP180;51487;52.266;10.542;2023-02-24T12:43:21;99201.00;;;2.50
64960;BMP180;51487;52.266;10.542;2023-02-24T12:54:57;99185.00;;;2.60
64960;BMP180;51487;52.266;10.542;2023-02-24T13:12:37;99155.00;;;2.40
64960;BMP180;51487;52.266;10.542;2023-02-24T13:15:24;99155.00;;;2.40
64960;BMP180;51487;52.266;10.542;2023-02-24T13:17:52;99153.00;;;2.40
64960;BMP180;51487;52.266;10.542;2023-02-24T13:22:51;99138.00;;;2.50
64960;BMP180;51487;52.266;10.542;2023-02-24T13:25:19;99134.00;;;2.50
64960;BMP180;51487;52.266;10.542;2023-02-24T13:31:02;99126.00;;;2.60
64960;BMP180;51487;52.266;10.542;2023-02-24T13:33:40;99120.00;;;2.60
64960;BMP180;51487;52.266;10.542;2023-02-24T13:36:15;99111.00;;;2.50
64960;BMP180;51487;52.266;10.542;2023-02-24T13:44:23;99096.00;;;2.40
64960;BMP180;51487;52.266;10.542;2023-02-24T13:47:05;99090.00;;;2.30
64960;BMP180;51487;52.266;10.542;2023-02-24T13:50:04;99085.00;;;2.30
64960;BMP180;51487;52.266;10.542;2023-02-24T13:53:12;99091.00;;;2.30
64960;BMP180;51487;52.266;10.542;2023-02-24T13:59:10;99084.00;;;2.50
64960;BMP180;51487;52.266;10.542;2023-02-24T14:02:02;99080.00;;;2.30
64960;BMP180;51487;52.266;10.542;2023-02-24T14:04:44;99073.00;;;2.50
64960;BMP180;51487;52.266;10.542;2023-02-24T14:07:22;99065.00;;;2.40
64960;BMP180;51487;52.266;10.542;2023-02-24T14:09:56;99069.00;;;2.40
64960;BMP180;51487;52.266;10.542;2023-02-24T14:12:30;99060.00;;;2.40
64960;BMP180;51487;52.266;10.542;2023-02-24T14:14:59;99069.00;;;2.40
64960;BMP180;51487;52.266;10.542;2023-02-24T14:17:29;99055.00;;;2.60
64960;BMP180;51487;52.266;10.542;2023-02-24T14:22:52;99054.00;;;2.40
64960;BMP180;51487;52.266;10.542;2023-02-24T14:25:23;99044.00;;;2.50
64960;BMP180;51487;52.266;10.542;2023-02-24T14:28:02;99048.00;;;2.40
64960;BMP180;51487;52.266;10.542;2023-02-24T14:30:33;99048.00;;;2.60
64960;BMP180;51487;52.266;10.542;2023-02-24T14:33:04;99048.00;;;2.40
64960;BMP180;51487;52.266;10.542;2023-02-24T14:35:45;99030.00;;;2.40
64960;BMP180;51487;52.266;10.542;2023-02-24T14:40:59;99029.00;;;2.50
64960;BMP180;51487;52.266;10.542;2023-02-24T14:43:25;99025.00;;;2.60
64960;BMP180;51487;52.266;10.542;2023-02-24T14:45:52;99015.00;;;2.70
64960;BMP180;51487;52.266;10.542;2023-02-24T14:48:29;99007.00;;;2.60
64960;BMP180;51487;52.266;10.542;2023-02-24T14:51:01;99009.00;;;2.80
64960;BMP180;51487;52.266;10.542;2023-02-24T14:53:35;99008.00;;;2.80
64960;BMP180;51487;52.266;10.542;2023-02-24T14:56:08;99001.00;;;2.90
64960;BMP180;51487;52.266;10.542;2023-02-24T14:58:53;98999.00;;;2.80
64960;BMP180;51487;52.266;10.542;2023-02-24T15:01:36;98993.00;;;2.90
64960;BMP180;51487;52.266;10.542;2023-02-24T15:04:11;98983.00;;;3.10
64960;BMP180;51487;52.266;10.542;2023-02-24T15:06:39;98984.00;;;2.90
64960;BMP180;51487;52.266;10.542;2023-02-24T15:09:13;98975.00;;;3.00
64960;BMP180;51487;52.266;10.542;2023-02-24T15:11:43;98966.00;;;3.20
64960;BMP180;51487;52.266;10.542;2023-02-24T15:14:21;98956.00;;;3.20
64960;BMP180;51487;52.266;10.542;2023-02-24T15:16:56;98963.00;;;3.10
64960;BMP180;51487;52.266;10.542;2023-02-24T15:19:31;98954.00;;;3.10
64960;BMP180;51487;52.266;10.542;2023-02-24T15:21:57;98967.00;;;3.20
64960;BMP180;51487;52.266;10.542;2023-02-24T15:24:28;98963.00;;;3.10
64960;BMP180;51487;52.266;10.542;2023-02-24T15:26:59;98963.00;;;3.20
64960;BMP180;51487;52.266;10.542;2023-02-24T15:29:37;98960.00;;;3.20
64960;BMP180;51487;52.266;10.542;2023-02-24T15:32:03;98950.00;;;3.30
64960;BMP180;51487;52.266;10.542;2023-02-24T15:34:34;98942.00;;;3.30
64960;BMP180;51487;52.266;10.542;2023-02-24T15:37:11;98942.00;;;3.30
64960;BMP180;51487;52.266;10.542;2023-02-24T15:39:48;98939.00;;;3.10
64960;BMP180;51487;52.266;10.542;2023-02-24T15:42:22;98941.00;;;3.10
64960;BMP180;51487;52.266;10.542;2023-02-24T15:45:20;98935.00;;;3.20
64960;BMP180;51487;52.266;10.542;2023-02-24T15:47:51;98924.00;;;3.20
64960;BMP180;51487;52.266;10.542;2023-02-24T15:50:19;98931.00;;;3.20
64960;BMP180;51487;52.266;10.542;2023-02-24T15:52:44;98920.00;;;3.20
64960;BMP180;51487;52.266;10.542;2023-02-24T15:55:14;98934.00;;;3.20
64960;BMP180;51487;52.266;10.542;2023-02-24T15:57:41;98921.00;;;3.20
64960;BMP180;51487;52.266;10.542;2023-02-24T16:00:07;98912.00;;;3.30
64960;BMP180;51487;52.266;10.542;2023-02-24T16:02:38;98918.00;;;3.30
64960;BMP180;51487;52.266;10.542;2023-02-24T16:05:04;98909.00;;;3.30
64960;BMP180;51487;52.266;10.542;2023-02-24T16:07:35;98903.00;;;3.40
64960;BMP180;51487;52.266;10.542;2023-02-24T16:10:03;98911.00;;;3.30
64960;BMP180;51487;52.266;10.542;2023-02-24T16:12:33;98904.00;;;3.30
64960;BMP180;51487;52.266;10.542;2023-02-24T16:15:05;98884.00;;;3.40
64960;BMP180;51487;52.266;10.542;2023-02-24T16:17:38;98885.00;;;3.40
64960;BMP180;51487;52.266;10.542;2023-02-24T16:20:10;98890.00;;;3.40
64960;BMP180;51487;52.266;10.542;2023-02-24T16:22:36;98877.00;;;3.40
64960;BMP180;51487;52.266;10.542;2023-02-24T16:25:02;98891.00;;;3.40
64960;BMP180;51487;52.266;10.542;2023-02-24T16:27:29;98889.00;;;3.40
64960;BMP180;51487;52.266;10.542;2023-02-24T16:29:56;98874.00;;;3.30
64960;BMP180;51487;52.266;10.542;2023-02-24T16:32:22;98884.00;;;3.40
64960;BMP180;51487;52.266;10.542;2023-02-24T16:34:51;98877.00;;;3.40
64960;BMP180;51487;52.266;10.542;2023-02-24T16:37:23;98881.00;;;3.50
64960;BMP180;51487;52.266;10.542;2023-02-24T16:39:51;98875.00;;;3.50
64960;BMP180;51487;52.266;10.542;2023-02-24T16:42:17;98879.00;;;3.50
64960;BMP180;51487;52.266;10.542;2023-02-24T16:44:43;98881.00;;;3.40
64960;BMP180;51487;52.266;10.542;2023-02-24T16:47:15;98879.00;;;3.50
64960;BMP180;51487;52.266;10.542;2023-02-24T16:49:44;98877.00;;;3.40
64960;BMP180;51487;52.266;10.542;2023-02-24T16:52:13;98870.00;;;3.30
64960;BMP180;51487;52.266;10.542;2023-02-24T16:54:43;98878.00;;;3.30
64960;BMP180;51487;52.266;10.542;2023-02-24T16:57:09;98881.00;;;3.20
64960;BMP180;51487;52.266;10.542;2023-02-24T16:59:35;98880.00;;;3.30
64960;BMP180;51487;52.266;10.542;2023-02-24T17:02:01;98863.00;;;3.30
64960;BMP180;51487;52.266;10.542;2023-02-24T17:04:27;98872.00;;;3.20